createdAt,value
2022-09-02T00:01:04.000Z,18
2022-09-02T00:02:10.000Z,19.3
2022-09-02T00:03:16.000Z,18.3
2022-09-02T00:04:22.000Z,18.6
2022-09-02T00:05:28.000Z,18.3
2022-09-02T00:06:34.000Z,18.3
2022-09-02T00:07:40.000Z,18.6
2022-09-02T00:08:46.000Z,18.3
2022-09-02T00:09:52.000Z,18.6
2022-09-02T00:10:58.000Z,18.6
2022-09-02T00:12:04.000Z,18.6
2022-09-02T00:14:16.000Z,18.3
2022-09-02T00:15:22.000Z,19
2022-09-02T00:16:28.000Z,18.6
2022-09-02T00:17:34.000Z,19.6
2022-09-02T00:18:40.000Z,18
2022-09-02T00:19:46.000Z,18.6
2022-09-02T00:20:52.000Z,18.6
2022-09-02T00:21:58.000Z,19
2022-09-02T00:23:05.000Z,19.3
2022-09-02T00:24:11.000Z,17.4
2022-09-02T00:25:16.000Z,18.6
2022-09-02T00:26:22.000Z,19
2022-09-02T00:27:28.000Z,18.3
2022-09-02T00:28:34.000Z,18
2022-09-02T00:29:40.000Z,18.6
2022-09-02T00:30:46.000Z,18.3
2022-09-02T00:31:52.000Z,19
2022-09-02T00:32:58.000Z,18
2022-09-02T00:34:04.000Z,18
2022-09-02T00:35:10.000Z,18
2022-09-02T00:36:16.000Z,17.7
2022-09-02T00:37:22.000Z,18.6
2022-09-02T00:38:29.000Z,18
2022-09-02T00:39:34.000Z,18.6
2022-09-02T00:40:40.000Z,18.6
2022-09-02T00:41:46.000Z,18.3
2022-09-02T00:42:52.000Z,19
2022-09-02T00:43:58.000Z,18
2022-09-02T00:45:04.000Z,18.3
2022-09-02T00:47:16.000Z,18.3
2022-09-02T00:48:22.000Z,18.3
2022-09-02T00:49:28.000Z,17.4
2022-09-02T00:50:34.000Z,18.3
2022-09-02T00:51:40.000Z,18
2022-09-02T00:52:46.000Z,17.7
2022-09-02T00:53:52.000Z,18.3
2022-09-02T00:54:58.000Z,17.7
2022-09-02T00:56:04.000Z,18
2022-09-02T00:57:10.000Z,18.3
2022-09-02T00:58:16.000Z,18
2022-09-02T00:59:22.000Z,17.7
2022-09-02T01:00:28.000Z,18.6
2022-09-02T01:01:34.000Z,18
2022-09-02T01:02:40.000Z,17.7
2022-09-02T01:03:46.000Z,17.4
2022-09-02T01:04:52.000Z,18
2022-09-02T01:05:58.000Z,17.7
2022-09-02T01:07:04.000Z,18.3
2022-09-02T01:08:09.000Z,18
2022-09-02T01:09:16.000Z,17.7
2022-09-02T01:10:22.000Z,18
2022-09-02T01:11:28.000Z,17.7
2022-09-02T01:12:34.000Z,18.6
2022-09-02T01:13:40.000Z,18.6
2022-09-02T01:14:46.000Z,18
2022-09-02T01:15:52.000Z,18
2022-09-02T01:16:58.000Z,18.6
2022-09-02T01:18:04.000Z,17.7
2022-09-02T01:19:10.000Z,18.6
2022-09-02T01:20:16.000Z,18.3
2022-09-02T01:21:22.000Z,18
2022-09-02T01:22:28.000Z,17.7
2022-09-02T01:23:34.000Z,17.4
2022-09-02T01:24:40.000Z,18.3
2022-09-02T01:25:46.000Z,17.7
2022-09-02T01:26:52.000Z,17.7
2022-09-02T01:27:58.000Z,18.6
2022-09-02T01:29:03.000Z,18
2022-09-02T01:30:09.000Z,18.3
2022-09-02T01:31:15.000Z,18.3
2022-09-02T01:32:21.000Z,18
2022-09-02T01:33:27.000Z,18
2022-09-02T01:34:33.000Z,17.7
2022-09-02T01:35:39.000Z,18.3
2022-09-02T01:36:46.000Z,18
2022-09-02T01:37:52.000Z,18.3
2022-09-02T01:38:58.000Z,18.3
2022-09-02T01:40:04.000Z,18.3
2022-09-02T01:42:16.000Z,18
2022-09-02T01:43:21.000Z,17.7
2022-09-02T01:44:27.000Z,18
2022-09-02T01:45:33.000Z,18
2022-09-02T01:46:39.000Z,18
2022-09-02T01:47:45.000Z,17.7
2022-09-02T01:48:51.000Z,17.7
2022-09-02T01:49:57.000Z,18.6
2022-09-02T01:51:03.000Z,17.7
2022-09-02T01:52:10.000Z,18
2022-09-02T01:53:16.000Z,17.7
2022-09-02T01:54:22.000Z,18.6
2022-09-02T01:55:28.000Z,17
2022-09-02T01:56:34.000Z,18.6
2022-09-02T01:57:40.000Z,18
2022-09-02T01:58:45.000Z,18.3
2022-09-02T01:59:51.000Z,17.4
2022-09-02T02:00:57.000Z,19.3
2022-09-02T02:02:02.000Z,18.6
2022-09-02T02:03:07.000Z,18.6
2022-09-02T02:04:14.000Z,19
2022-09-02T02:05:20.000Z,18
2022-09-02T02:06:25.000Z,17.4
2022-09-02T02:07:30.000Z,17.7
2022-09-02T02:08:36.000Z,18.6
2022-09-02T02:09:42.000Z,18.3
2022-09-02T02:10:48.000Z,18
2022-09-02T02:11:54.000Z,17.4
2022-09-02T02:13:00.000Z,18.6
2022-09-02T02:14:06.000Z,17.4
2022-09-02T02:15:12.000Z,18
2022-09-02T02:16:18.000Z,17.4
2022-09-02T02:17:24.000Z,17.7
2022-09-02T02:18:30.000Z,17
2022-09-02T02:19:37.000Z,17.7
2022-09-02T02:20:43.000Z,17.7
2022-09-02T02:21:48.000Z,17.7
2022-09-02T02:22:54.000Z,17.4
2022-09-02T02:24:00.000Z,18.3
2022-09-02T02:25:06.000Z,18
2022-09-02T02:26:12.000Z,17.7
2022-09-02T02:27:18.000Z,18
2022-09-02T02:28:24.000Z,17.4
2022-09-02T02:29:30.000Z,17.7
2022-09-02T02:30:36.000Z,17.4
2022-09-02T02:31:42.000Z,19
2022-09-02T02:32:48.000Z,18.3
2022-09-02T02:33:54.000Z,17.7
2022-09-02T02:35:01.000Z,17.4
2022-09-02T02:36:06.000Z,17.4
2022-09-02T02:37:12.000Z,17.7
2022-09-02T02:38:18.000Z,18
2022-09-02T02:39:24.000Z,17.7
2022-09-02T02:40:30.000Z,18.3
2022-09-02T02:41:36.000Z,18
2022-09-02T02:42:42.000Z,18
2022-09-02T02:43:48.000Z,18.3
2022-09-02T02:44:54.000Z,18
2022-09-02T02:46:00.000Z,18.3
2022-09-02T02:48:13.000Z,18
2022-09-02T02:49:19.000Z,18
2022-09-02T02:50:24.000Z,17
2022-09-02T02:51:30.000Z,17.4
2022-09-02T02:52:36.000Z,18
2022-09-02T02:53:42.000Z,17.4
2022-09-02T02:54:48.000Z,17
2022-09-02T02:55:54.000Z,18
2022-09-02T02:57:00.000Z,17.7
2022-09-02T02:58:06.000Z,18
2022-09-02T02:59:12.000Z,18
2022-09-02T03:00:18.000Z,18
2022-09-02T03:01:24.000Z,17.7
2022-09-02T03:02:31.000Z,17.7
2022-09-02T03:03:37.000Z,18
2022-09-02T03:04:42.000Z,17.4
2022-09-02T03:05:48.000Z,17.7
2022-09-02T03:06:54.000Z,17.7
2022-09-02T03:08:00.000Z,17.7
2022-09-02T03:09:06.000Z,17.4
2022-09-02T03:10:12.000Z,17.4
2022-09-02T03:11:18.000Z,18
2022-09-02T03:12:24.000Z,18
2022-09-02T03:13:30.000Z,18.3
2022-09-02T03:14:36.000Z,17.7
2022-09-02T03:15:42.000Z,17.7
2022-09-02T03:16:48.000Z,18
2022-09-02T03:17:55.000Z,17.4
2022-09-02T03:19:00.000Z,17.7
2022-09-02T03:20:06.000Z,18
2022-09-02T03:21:12.000Z,18
2022-09-02T03:22:18.000Z,17.7
2022-09-02T03:23:24.000Z,18
2022-09-02T03:24:30.000Z,17
2022-09-02T03:25:36.000Z,18
2022-09-02T03:26:42.000Z,18.3
2022-09-02T03:27:48.000Z,17.4
2022-09-02T03:28:54.000Z,18
2022-09-02T03:30:01.000Z,17.7
2022-09-02T03:32:13.000Z,18
2022-09-02T03:33:19.000Z,17.7
2022-09-02T03:34:24.000Z,17.4
2022-09-02T03:35:30.000Z,17.7
2022-09-02T03:36:36.000Z,16.7
2022-09-02T03:37:42.000Z,17.7
2022-09-02T03:38:48.000Z,18
2022-09-02T03:39:54.000Z,17.4
2022-09-02T03:41:00.000Z,18
2022-09-02T03:42:06.000Z,17
2022-09-02T03:43:12.000Z,17.4
2022-09-02T03:44:19.000Z,18.3
2022-09-02T03:45:25.000Z,17.7
2022-09-02T03:46:31.000Z,17.4
2022-09-02T03:47:37.000Z,17
2022-09-02T03:48:42.000Z,17.4
2022-09-02T03:49:48.000Z,17.4
2022-09-02T03:50:54.000Z,17.4
2022-09-02T03:52:00.000Z,18.6
2022-09-02T03:53:06.000Z,17.4
2022-09-02T03:54:12.000Z,17.4
2022-09-02T03:55:18.000Z,16.7
2022-09-02T03:56:24.000Z,17
2022-09-02T03:57:30.000Z,18
2022-09-02T03:58:36.000Z,17
2022-09-02T03:59:43.000Z,17.4
2022-09-02T04:00:49.000Z,17.4
2022-09-02T04:01:55.000Z,17.7
2022-09-02T04:03:00.000Z,17.7
2022-09-02T04:04:06.000Z,17.4
2022-09-02T04:05:12.000Z,18
2022-09-02T04:06:18.000Z,17.4
2022-09-02T04:07:24.000Z,17.7
2022-09-02T04:08:30.000Z,17.4
2022-09-02T04:09:36.000Z,17.7
2022-09-02T04:10:42.000Z,18
2022-09-02T04:11:48.000Z,17
2022-09-02T04:12:54.000Z,17.4
2022-09-02T04:14:00.000Z,17.7
2022-09-02T04:16:13.000Z,17.7
2022-09-02T04:17:19.000Z,17.4
2022-09-02T04:18:24.000Z,17.7
2022-09-02T04:19:30.000Z,16.7
2022-09-02T04:20:36.000Z,17.4
2022-09-02T04:21:42.000Z,18
2022-09-02T04:22:48.000Z,18
2022-09-02T04:23:54.000Z,18.3
2022-09-02T04:25:00.000Z,17
2022-09-02T04:27:12.000Z,16.7
2022-09-02T04:28:19.000Z,18.6
2022-09-02T04:29:25.000Z,17.4
2022-09-02T04:30:31.000Z,17
2022-09-02T04:31:37.000Z,17.7
2022-09-02T04:32:42.000Z,17.4
2022-09-02T04:33:48.000Z,17.4
2022-09-02T04:34:54.000Z,17.7
2022-09-02T04:36:00.000Z,17.4
2022-09-02T04:37:06.000Z,17
2022-09-02T04:38:12.000Z,17
2022-09-02T04:40:24.000Z,17
2022-09-02T04:41:30.000Z,17.7
2022-09-02T04:42:37.000Z,17.4
2022-09-02T04:43:43.000Z,17.4
2022-09-02T04:44:49.000Z,17.4
2022-09-02T04:45:55.000Z,17.7
2022-09-02T04:47:00.000Z,17.4
2022-09-02T04:48:06.000Z,17.4
2022-09-02T04:49:12.000Z,17
2022-09-02T04:50:18.000Z,17
2022-09-02T04:51:24.000Z,17
2022-09-02T04:52:30.000Z,17.4
2022-09-02T04:53:36.000Z,17.7
2022-09-02T04:54:42.000Z,17.4
2022-09-02T04:55:48.000Z,17.4
2022-09-02T04:56:54.000Z,17.7
2022-09-02T04:58:01.000Z,17.7
2022-09-02T04:59:07.000Z,17.4
2022-09-02T05:00:13.000Z,17.4
2022-09-02T05:01:18.000Z,16.4
2022-09-02T05:02:24.000Z,16.7
2022-09-02T05:03:30.000Z,17.4
2022-09-02T05:04:36.000Z,18
2022-09-02T05:05:42.000Z,17.4
2022-09-02T05:06:48.000Z,17
2022-09-02T05:07:54.000Z,18
2022-09-02T05:09:00.000Z,17
2022-09-02T05:11:11.000Z,17
2022-09-02T05:12:17.000Z,17
2022-09-02T05:13:23.000Z,16.4
2022-09-02T05:14:29.000Z,17
2022-09-02T05:15:35.000Z,17
2022-09-02T05:16:41.000Z,17.7
2022-09-02T05:17:47.000Z,18
2022-09-02T05:18:53.000Z,17.7
2022-09-02T05:19:59.000Z,16.7
2022-09-02T05:21:05.000Z,18
2022-09-02T05:22:11.000Z,17.7
2022-09-02T05:23:17.000Z,16.7
2022-09-02T05:24:23.000Z,16.7
2022-09-02T05:25:29.000Z,17.7
2022-09-02T05:26:35.000Z,17
2022-09-02T05:27:41.000Z,17.4
2022-09-02T05:28:47.000Z,17.7
2022-09-02T05:29:53.000Z,17
2022-09-02T05:30:59.000Z,17.4
2022-09-02T05:32:05.000Z,16.7
2022-09-02T05:33:11.000Z,18
2022-09-02T05:34:17.000Z,17.4
2022-09-02T05:35:23.000Z,17
2022-09-02T05:36:29.000Z,17
2022-09-02T05:37:35.000Z,17.4
2022-09-02T05:38:41.000Z,17.7
2022-09-02T05:39:47.000Z,17.7
2022-09-02T05:40:53.000Z,17
2022-09-02T05:41:59.000Z,16.7
2022-09-02T05:43:05.000Z,17
2022-09-02T05:44:11.000Z,17.7
2022-09-02T05:45:17.000Z,17.4
2022-09-02T05:46:23.000Z,16.4
2022-09-02T05:47:29.000Z,17.7
2022-09-02T05:48:35.000Z,17.7
2022-09-02T05:49:41.000Z,16.4
2022-09-02T05:50:47.000Z,17.4
2022-09-02T05:51:53.000Z,17
2022-09-02T05:52:59.000Z,18
2022-09-02T05:55:11.000Z,17.4
2022-09-02T05:56:17.000Z,17.7
2022-09-02T05:57:23.000Z,17
2022-09-02T05:58:29.000Z,17.4
2022-09-02T05:59:35.000Z,17
2022-09-02T06:00:41.000Z,17
2022-09-02T06:01:47.000Z,17.7
2022-09-02T06:02:53.000Z,17.4
2022-09-02T06:03:59.000Z,17.4
2022-09-02T06:06:11.000Z,17.4
2022-09-02T06:07:17.000Z,17
2022-09-02T06:08:23.000Z,16.7
2022-09-02T06:09:29.000Z,17
2022-09-02T06:10:34.000Z,17.4
2022-09-02T06:11:41.000Z,17.4
2022-09-02T06:12:47.000Z,16.7
2022-09-02T06:13:53.000Z,17.4
2022-09-02T06:14:59.000Z,17.7
2022-09-02T06:16:05.000Z,17.7
2022-09-02T06:17:11.000Z,18
2022-09-02T06:18:17.000Z,17
2022-09-02T06:19:23.000Z,16.7
2022-09-02T06:20:29.000Z,17.4
2022-09-02T06:21:35.000Z,17.7
2022-09-02T06:22:41.000Z,16.7
2022-09-02T06:23:47.000Z,16.7
2022-09-02T06:24:53.000Z,17.7
2022-09-02T06:25:59.000Z,17
2022-09-02T06:27:05.000Z,17.4
2022-09-02T06:28:11.000Z,17.7
2022-09-02T06:29:17.000Z,17
2022-09-02T06:30:23.000Z,16.7
2022-09-02T06:31:29.000Z,17.4
2022-09-02T06:32:35.000Z,17
2022-09-02T06:33:41.000Z,16.7
2022-09-02T06:34:47.000Z,17
2022-09-02T06:35:53.000Z,16.7
2022-09-02T06:36:59.000Z,17
2022-09-02T06:38:05.000Z,17
2022-09-02T06:39:11.000Z,16.4
2022-09-02T06:40:17.000Z,17.4
2022-09-02T06:41:23.000Z,16.7
2022-09-02T06:42:29.000Z,17
2022-09-02T06:43:35.000Z,17.4
2022-09-02T06:44:41.000Z,17
2022-09-02T06:45:47.000Z,17.4
2022-09-02T06:46:53.000Z,16.7
2022-09-02T06:47:59.000Z,17.7
2022-09-02T06:50:11.000Z,17.7
2022-09-02T06:51:17.000Z,17
2022-09-02T06:52:23.000Z,16.7
2022-09-02T06:53:28.000Z,17
2022-09-02T06:54:35.000Z,16.7
2022-09-02T06:55:41.000Z,17.4
2022-09-02T06:56:47.000Z,16.7
2022-09-02T06:57:53.000Z,17.4
2022-09-02T06:58:59.000Z,16.4
2022-09-02T07:00:05.000Z,17.7
2022-09-02T07:01:11.000Z,16.4
2022-09-02T07:02:17.000Z,16.4
2022-09-02T07:03:23.000Z,17.4
2022-09-02T07:04:29.000Z,17
2022-09-02T07:05:35.000Z,17.4
2022-09-02T07:06:41.000Z,16.4
2022-09-02T07:07:46.000Z,16.7
2022-09-02T07:08:52.000Z,16.7
2022-09-02T07:09:59.000Z,17.7
2022-09-02T07:12:11.000Z,16.4
2022-09-02T07:13:17.000Z,17
2022-09-02T07:14:23.000Z,17
2022-09-02T07:15:29.000Z,16.4
2022-09-02T07:16:35.000Z,17
2022-09-02T07:17:41.000Z,17
2022-09-02T07:18:47.000Z,17.7
2022-09-02T07:19:53.000Z,16.7
2022-09-02T07:20:59.000Z,17
2022-09-02T07:22:04.000Z,16.7
2022-09-02T07:23:11.000Z,17
2022-09-02T07:24:17.000Z,17
2022-09-02T07:25:23.000Z,17
2022-09-02T07:26:29.000Z,17
2022-09-02T07:27:35.000Z,17.4
2022-09-02T07:28:41.000Z,16.4
2022-09-02T07:29:47.000Z,16.7
2022-09-02T07:30:53.000Z,16.7
2022-09-02T07:33:05.000Z,16.7
2022-09-02T07:34:11.000Z,17
2022-09-02T07:35:17.000Z,16.7
2022-09-02T07:36:22.000Z,16.7
2022-09-02T07:37:28.000Z,17.4
2022-09-02T07:38:35.000Z,17
2022-09-02T07:39:41.000Z,16.1
2022-09-02T07:40:47.000Z,17
2022-09-02T07:41:53.000Z,18
2022-09-02T07:42:59.000Z,16.7
2022-09-02T07:45:11.000Z,17.4
2022-09-02T07:46:17.000Z,16.4
2022-09-02T07:47:23.000Z,16.7
2022-09-02T07:48:29.000Z,16.7
2022-09-02T07:49:35.000Z,17.7
2022-09-02T07:50:40.000Z,17.4
2022-09-02T07:51:46.000Z,16.7
2022-09-02T07:52:53.000Z,16.4
2022-09-02T07:53:59.000Z,17.4
2022-09-02T07:55:05.000Z,17.4
2022-09-02T07:56:11.000Z,17.4
2022-09-02T07:57:17.000Z,15.1
2022-09-02T07:58:23.000Z,16.7
2022-09-02T07:59:29.000Z,17.4
2022-09-02T08:00:35.000Z,17
2022-09-02T08:01:41.000Z,16.4
2022-09-02T08:02:47.000Z,17.4
2022-09-02T08:03:53.000Z,16.7
2022-09-02T08:04:58.000Z,17
2022-09-02T08:06:04.000Z,16.7
2022-09-02T08:07:11.000Z,17
2022-09-02T08:08:17.000Z,17
2022-09-02T08:09:23.000Z,17
2022-09-02T08:10:29.000Z,17
2022-09-02T08:11:35.000Z,16.7
2022-09-02T08:12:41.000Z,18
2022-09-02T08:13:47.000Z,17.7
2022-09-02T08:14:53.000Z,16.7
2022-09-02T08:15:59.000Z,16.4
2022-09-02T08:18:11.000Z,17
2022-09-02T08:19:16.000Z,17
2022-09-02T08:20:23.000Z,17.7
2022-09-02T08:21:29.000Z,17
2022-09-02T08:22:35.000Z,18
2022-09-02T08:23:41.000Z,17
2022-09-02T08:24:47.000Z,17
2022-09-02T08:25:53.000Z,17
2022-09-02T08:26:59.000Z,16.7
2022-09-02T08:28:05.000Z,17.7
2022-09-02T08:29:11.000Z,16.7
2022-09-02T08:30:17.000Z,17
2022-09-02T08:31:23.000Z,16.7
2022-09-02T08:32:29.000Z,17.4
2022-09-02T08:33:34.000Z,17
2022-09-02T08:34:40.000Z,16.4
2022-09-02T08:35:47.000Z,15.7
2022-09-02T08:36:53.000Z,16.4
2022-09-02T08:37:59.000Z,17
2022-09-02T08:39:05.000Z,17.7
2022-09-02T08:40:11.000Z,17
2022-09-02T08:41:17.000Z,17.4
2022-09-02T08:42:23.000Z,16.7
2022-09-02T08:43:29.000Z,16.7
2022-09-02T08:44:35.000Z,16.4
2022-09-02T08:45:41.000Z,17
2022-09-02T08:46:47.000Z,18
2022-09-02T08:47:52.000Z,16.1
2022-09-02T08:48:58.000Z,17.4
2022-09-02T08:51:11.000Z,17
2022-09-02T08:52:17.000Z,16.7
2022-09-02T08:53:22.000Z,16.7
2022-09-02T08:54:28.000Z,17
2022-09-02T08:55:34.000Z,16.7
2022-09-02T08:56:40.000Z,17.7
2022-09-02T08:57:46.000Z,17.4
2022-09-02T08:58:52.000Z,17
2022-09-02T08:59:58.000Z,17.4
2022-09-02T09:01:04.000Z,16.1
2022-09-02T09:02:10.000Z,16.4
2022-09-02T09:03:16.000Z,17.4
2022-09-02T09:04:22.000Z,17.4
2022-09-02T09:05:29.000Z,17
2022-09-02T09:06:35.000Z,17.4
2022-09-02T09:07:40.000Z,16.1
2022-09-02T09:08:46.000Z,17.4
2022-09-02T09:09:52.000Z,16.7
2022-09-02T09:10:58.000Z,18
2022-09-02T09:12:04.000Z,18
2022-09-02T09:13:10.000Z,17.4
2022-09-02T09:14:16.000Z,17
2022-09-02T09:15:22.000Z,16.7
2022-09-02T09:16:28.000Z,17.4
2022-09-02T09:17:34.000Z,17.7
2022-09-02T09:18:40.000Z,16.4
2022-09-02T09:19:47.000Z,16.7
2022-09-02T09:20:53.000Z,16.7
2022-09-02T09:21:58.000Z,17
2022-09-02T09:24:10.000Z,18
2022-09-02T09:25:16.000Z,17.4
2022-09-02T09:26:22.000Z,17
2022-09-02T09:27:28.000Z,16.1
2022-09-02T09:28:34.000Z,17.4
2022-09-02T09:29:40.000Z,16.7
2022-09-02T09:30:46.000Z,16.7
2022-09-02T09:31:52.000Z,16.7
2022-09-02T09:32:58.000Z,17.7
2022-09-02T09:35:11.000Z,18
2022-09-02T09:36:16.000Z,16.7
2022-09-02T09:37:22.000Z,17
2022-09-02T09:38:28.000Z,18
2022-09-02T09:39:34.000Z,17
2022-09-02T09:40:40.000Z,16.7
2022-09-02T09:41:46.000Z,16.7
2022-09-02T09:42:52.000Z,17.7
2022-09-02T09:43:58.000Z,16.4
2022-09-02T09:45:04.000Z,17
2022-09-02T09:46:10.000Z,17
2022-09-02T09:47:16.000Z,17.4
2022-09-02T09:48:22.000Z,17
2022-09-02T09:49:29.000Z,17
2022-09-02T09:50:34.000Z,16.7
2022-09-02T09:51:40.000Z,16.7
2022-09-02T09:52:46.000Z,16.7
2022-09-02T09:53:52.000Z,17
2022-09-02T09:54:58.000Z,17.4
2022-09-02T09:56:04.000Z,17
2022-09-02T09:57:10.000Z,17
2022-09-02T09:58:16.000Z,17.4
2022-09-02T09:59:22.000Z,17
2022-09-02T10:00:28.000Z,17.7
2022-09-02T10:01:35.000Z,17
2022-09-02T10:02:41.000Z,17.4
2022-09-02T10:03:47.000Z,17.7
2022-09-02T10:04:52.000Z,17.7
2022-09-02T10:05:58.000Z,17
2022-09-02T10:08:10.000Z,16.4
2022-09-02T10:09:16.000Z,17.7
2022-09-02T10:10:22.000Z,17.4
2022-09-02T10:11:28.000Z,17.4
2022-09-02T10:12:34.000Z,17
2022-09-02T10:13:40.000Z,17
2022-09-02T10:14:46.000Z,17
2022-09-02T10:15:52.000Z,17.4
2022-09-02T10:16:59.000Z,18
2022-09-02T10:18:05.000Z,17.7
2022-09-02T10:19:10.000Z,16.7
2022-09-02T10:20:16.000Z,17.4
2022-09-02T10:21:22.000Z,17.7
2022-09-02T10:22:28.000Z,17.4
2022-09-02T10:23:34.000Z,18
2022-09-02T10:24:40.000Z,17.7
2022-09-02T10:25:46.000Z,17.4
2022-09-02T10:26:52.000Z,17.4
2022-09-02T10:27:58.000Z,17
2022-09-02T10:29:04.000Z,17
2022-09-02T10:30:10.000Z,17.4
2022-09-02T10:31:16.000Z,17.4
2022-09-02T10:32:23.000Z,17.7
2022-09-02T10:33:28.000Z,17.4
2022-09-02T10:34:34.000Z,17
2022-09-02T10:35:40.000Z,17
2022-09-02T10:36:46.000Z,17.4
2022-09-02T10:37:52.000Z,17.4
2022-09-02T10:38:58.000Z,17
2022-09-02T10:40:04.000Z,17.4
2022-09-02T10:41:10.000Z,17
2022-09-02T10:42:16.000Z,17.7
2022-09-02T10:43:22.000Z,17.7
2022-09-02T10:44:29.000Z,17.4
2022-09-02T10:45:35.000Z,16.4
2022-09-02T10:46:41.000Z,16.7
2022-09-02T10:47:46.000Z,17.7
2022-09-02T10:48:52.000Z,17
2022-09-02T10:49:58.000Z,17.7
2022-09-02T10:52:10.000Z,17
2022-09-02T10:53:16.000Z,17.7
2022-09-02T10:54:22.000Z,18
2022-09-02T10:55:28.000Z,17.7
2022-09-02T10:56:34.000Z,17
2022-09-02T10:57:40.000Z,17
2022-09-02T11:57:31.000Z,17.4
2022-09-02T11:58:37.000Z,18.3
2022-09-02T11:59:43.000Z,17.7
2022-09-02T12:00:49.000Z,17.4
2022-09-02T12:01:55.000Z,18.3
2022-09-02T12:03:01.000Z,18.3
2022-09-02T12:04:07.000Z,17.4
2022-09-02T12:05:13.000Z,17.7
2022-09-02T12:06:19.000Z,17.4
2022-09-02T12:07:25.000Z,17.7
2022-09-02T12:08:31.000Z,17
2022-09-02T12:09:38.000Z,18.6
2022-09-02T12:10:44.000Z,17.7
2022-09-02T12:11:50.000Z,18.6
2022-09-02T12:12:56.000Z,17.4
2022-09-02T12:14:02.000Z,17.7
2022-09-02T12:15:08.000Z,18
2022-09-02T12:16:14.000Z,17.7
2022-09-02T12:17:20.000Z,18.3
2022-09-02T12:18:26.000Z,18
2022-09-02T12:19:32.000Z,18.6
2022-09-02T12:20:38.000Z,18.6
2022-09-02T12:21:44.000Z,17.4
2022-09-02T12:22:50.000Z,18.6
2022-09-02T12:23:56.000Z,18.3
2022-09-02T12:25:03.000Z,18.3
2022-09-02T12:26:09.000Z,18
2022-09-02T12:27:15.000Z,19
2022-09-02T12:28:21.000Z,18.3
2022-09-02T12:29:27.000Z,18
2022-09-02T12:30:33.000Z,18.6
2022-09-02T12:31:39.000Z,18.3
2022-09-02T12:32:45.000Z,18.6
2022-09-02T12:33:51.000Z,18
2022-09-02T12:36:03.000Z,18.6
2022-09-02T12:37:09.000Z,19
2022-09-02T12:38:15.000Z,19
2022-09-02T12:39:21.000Z,19
2022-09-02T12:40:28.000Z,18.6
2022-09-02T12:41:34.000Z,18.3
2022-09-02T12:42:40.000Z,18.3
2022-09-02T12:43:46.000Z,19
2022-09-02T12:45:58.000Z,18
2022-09-02T12:47:04.000Z,18.3
2022-09-02T12:48:10.000Z,18
2022-09-02T12:49:16.000Z,19
2022-09-02T12:50:22.000Z,19.3
2022-09-02T12:51:28.000Z,18.3
2022-09-02T12:52:35.000Z,18.3
2022-09-02T12:53:41.000Z,18.6
2022-09-02T12:54:47.000Z,18.6
2022-09-02T12:55:53.000Z,19
2022-09-02T12:56:59.000Z,19
2022-09-02T12:58:05.000Z,19.3
2022-09-02T12:59:11.000Z,18.3
2022-09-02T13:00:17.000Z,18.6
2022-09-02T13:01:23.000Z,19
2022-09-02T13:02:29.000Z,18.3
2022-09-02T13:03:35.000Z,19
2022-09-02T13:04:41.000Z,19
2022-09-02T13:05:47.000Z,18.6
2022-09-02T13:06:53.000Z,18.6
2022-09-02T13:08:00.000Z,19
2022-09-02T13:09:06.000Z,18.6
2022-09-02T13:10:12.000Z,18.6
2022-09-02T13:11:18.000Z,19
2022-09-02T13:12:24.000Z,18.6
2022-09-02T13:13:30.000Z,18.6
2022-09-02T13:14:36.000Z,19.6
2022-09-02T13:15:42.000Z,18.6
2022-09-02T13:16:48.000Z,19.3
2022-09-02T13:17:54.000Z,19.6
2022-09-02T13:19:00.000Z,19.3
2022-09-02T13:20:06.000Z,19
2022-09-02T13:21:12.000Z,19
2022-09-02T13:22:18.000Z,18.6
2022-09-02T13:23:25.000Z,18
2022-09-02T13:24:31.000Z,19.3
2022-09-02T13:25:37.000Z,18.6
2022-09-02T13:26:43.000Z,18.3
2022-09-02T13:27:49.000Z,19.3
2022-09-02T13:28:55.000Z,18.3
2022-09-02T13:31:07.000Z,19
2022-09-02T13:32:13.000Z,18.6
2022-09-02T13:33:19.000Z,19.6
2022-09-02T13:34:25.000Z,19.6
2022-09-02T13:35:31.000Z,19.3
2022-09-02T13:36:37.000Z,18.6
2022-09-02T13:37:43.000Z,19
2022-09-02T13:38:50.000Z,19.3
2022-09-02T13:39:56.000Z,19.9
2022-09-02T13:41:02.000Z,19
2022-09-02T13:42:08.000Z,19.3
2022-09-02T13:43:14.000Z,18.3
2022-09-02T13:44:20.000Z,19
2022-09-02T13:45:26.000Z,18.3
2022-09-02T13:46:32.000Z,19
2022-09-02T13:47:38.000Z,18.6
2022-09-02T13:48:44.000Z,19
2022-09-02T13:49:50.000Z,19.3
2022-09-02T13:50:56.000Z,19
2022-09-02T13:52:02.000Z,19.3
2022-09-02T13:53:08.000Z,19.3
2022-09-02T13:54:15.000Z,19
2022-09-02T13:55:21.000Z,19.3
2022-09-02T13:56:27.000Z,19.6
2022-09-02T13:57:33.000Z,20.3
2022-09-02T13:58:39.000Z,19.6
2022-09-02T13:59:45.000Z,19
2022-09-02T14:00:51.000Z,19
2022-09-02T14:01:57.000Z,20.3
2022-09-02T14:04:09.000Z,19.3
2022-09-02T14:05:15.000Z,19.6
2022-09-02T14:06:21.000Z,19.9
2022-09-02T14:07:27.000Z,19.3
2022-09-02T14:08:33.000Z,19.3
2022-09-02T14:09:40.000Z,19.6
2022-09-02T14:10:46.000Z,19.6
2022-09-02T14:11:52.000Z,19.9
2022-09-02T14:12:58.000Z,19.6
2022-09-02T14:15:10.000Z,19
2022-09-02T14:16:16.000Z,19.6
2022-09-02T14:17:22.000Z,19.6
2022-09-02T14:18:28.000Z,19.3
2022-09-02T14:19:34.000Z,19
2022-09-02T14:20:40.000Z,19.6
2022-09-02T14:21:47.000Z,19.9
2022-09-02T14:22:53.000Z,19.9
2022-09-02T14:23:59.000Z,19.9
2022-09-02T14:25:05.000Z,19.3
2022-09-02T14:26:11.000Z,19.6
2022-09-02T14:27:17.000Z,19.3
2022-09-02T14:28:23.000Z,19.6
2022-09-02T14:29:29.000Z,19
2022-09-02T14:30:35.000Z,19.9
2022-09-02T14:31:41.000Z,19.9
2022-09-02T14:32:47.000Z,19.6
2022-09-02T14:33:53.000Z,19.9
2022-09-02T14:34:59.000Z,19.3
2022-09-02T14:36:05.000Z,19.6
2022-09-02T14:37:12.000Z,19.6
2022-09-02T14:38:18.000Z,19.9
2022-09-02T14:39:24.000Z,19.9
2022-09-02T14:40:30.000Z,20.3
2022-09-02T14:41:36.000Z,20.3
2022-09-02T14:42:42.000Z,19.9
2022-09-02T14:43:48.000Z,19.6
2022-09-02T14:44:54.000Z,19.9
2022-09-02T14:46:00.000Z,19.6
2022-09-02T14:48:12.000Z,20.3
2022-09-02T14:49:18.000Z,19.9
2022-09-02T14:50:24.000Z,20.3
2022-09-02T14:51:30.000Z,19.9
2022-09-02T14:52:37.000Z,19.6
2022-09-02T14:53:43.000Z,19.9
2022-09-02T14:54:49.000Z,19.9
2022-09-02T14:55:55.000Z,19.6
2022-09-02T14:57:01.000Z,20.3
2022-09-02T14:59:13.000Z,20.6
2022-09-02T15:00:19.000Z,19.9
2022-09-02T15:01:25.000Z,19.9
2022-09-02T15:02:31.000Z,19.6
2022-09-02T15:03:37.000Z,19.9
2022-09-02T15:04:43.000Z,19.9
2022-09-02T15:05:49.000Z,19.9
2022-09-02T15:06:55.000Z,19
2022-09-02T15:08:01.000Z,19.6
2022-09-02T15:09:08.000Z,19.9
2022-09-02T15:10:14.000Z,19.9
2022-09-02T15:11:20.000Z,20.3
2022-09-02T15:12:26.000Z,19.9
2022-09-02T15:13:32.000Z,19.6
2022-09-02T15:14:38.000Z,20.6
2022-09-02T15:15:44.000Z,20.3
2022-09-02T15:16:50.000Z,19.3
2022-09-02T15:17:56.000Z,19.3
2022-09-02T15:20:08.000Z,19.3
2022-09-02T15:21:14.000Z,19.9
2022-09-02T15:22:20.000Z,19.6
2022-09-02T15:23:26.000Z,19.9
2022-09-02T15:24:33.000Z,19.9
2022-09-02T15:25:39.000Z,19.9
2022-09-02T15:26:45.000Z,20.6
2022-09-02T15:27:51.000Z,19.3
2022-09-02T15:28:57.000Z,19.9
2022-09-02T15:30:03.000Z,20.3
2022-09-02T15:32:15.000Z,19.6
2022-09-02T15:33:21.000Z,19.9
2022-09-02T15:34:27.000Z,19.6
2022-09-02T15:35:33.000Z,20.3
2022-09-02T15:36:39.000Z,20.6
2022-09-02T15:37:45.000Z,19.9
2022-09-02T15:38:51.000Z,19.6
2022-09-02T15:39:57.000Z,19.9
2022-09-02T15:41:03.000Z,20.6
2022-09-02T15:42:09.000Z,20.3
2022-09-02T15:43:15.000Z,21.5
2022-09-02T15:44:21.000Z,20.6
2022-09-02T15:45:27.000Z,20.3
2022-09-02T15:46:33.000Z,18.6
2022-09-02T15:47:39.000Z,20.6
2022-09-02T15:48:45.000Z,19.6
2022-09-02T15:49:51.000Z,20.9
2022-09-02T15:50:57.000Z,20.6
2022-09-02T15:52:04.000Z,20.3
2022-09-02T15:53:10.000Z,19.6
2022-09-02T15:54:16.000Z,19.9
2022-09-02T15:55:22.000Z,20.9
2022-09-02T15:56:28.000Z,19.6
2022-09-02T15:57:34.000Z,20.3
2022-09-02T15:58:40.000Z,20.6
2022-09-02T15:59:46.000Z,19.9
2022-09-02T16:00:52.000Z,20.6
2022-09-02T16:01:58.000Z,20.3
2022-09-02T16:03:04.000Z,19.3
2022-09-02T16:05:16.000Z,20.9
2022-09-02T16:06:22.000Z,19.6
2022-09-02T16:07:29.000Z,20.3
2022-09-02T16:08:35.000Z,20.6
2022-09-02T16:09:41.000Z,20.6
2022-09-02T16:10:47.000Z,20.6
2022-09-02T16:11:53.000Z,19.6
2022-09-02T16:12:59.000Z,19.6
2022-09-02T16:14:05.000Z,20.3
2022-09-02T16:16:17.000Z,20.6
2022-09-02T16:17:23.000Z,20.3
2022-09-02T16:18:29.000Z,19.9
2022-09-02T16:19:35.000Z,20.3
2022-09-02T16:20:41.000Z,20.9
2022-09-02T16:21:47.000Z,19.9
2022-09-02T16:22:54.000Z,20.6
2022-09-02T16:24:00.000Z,19.9
2022-09-02T16:25:06.000Z,19.3
2022-09-02T16:26:12.000Z,20.9
2022-09-02T16:27:18.000Z,20.3
2022-09-02T16:28:24.000Z,20.3
2022-09-02T16:29:30.000Z,20.6
2022-09-02T16:30:36.000Z,20.9